Time;durP1;ratioP1;P1;durP2;ratioP2;P2;SDS_P1;SDS_P2;PMS_P1;PMS_P2;Temp;Humidity;BMP_temperature;BMP_pressure;BME280_temperature;BME280_humidity;BME280_pressure;Samples;Min_cycle;Max_cycle;Signal;HPM_P1;HPM_P2
2022/03/22 00:00:59;;;;;;;45.35;32.15;;;;;;;6.58;82.88;102843.88;4977673;28;20038;-78
2022/03/22 00:03:25;;;;;;;45.75;32.03;;;;;;;6.57;82.63;102844.78;4980870;28;20022;-78
2022/03/22 00:05:54;;;;;;;46.25;31.13;;;;;;;6.57;82.47;102847.47;4970953;28;20026;-78
2022/03/22 00:08:20;;;;;;;;;;;;;;;6.63;81.26;102850.00;4970739;28;20034;-78
2022/03/22 00:10:45;;;;;;;44.72;29.58;;;;;;;6.54;82.75;102850.22;4975787;28;19980;-78
2022/03/22 00:13:11;;;;;;;47.30;30.85;;;;;;;6.53;83.17;102848.47;4972472;28;20022;-78
2022/03/22 00:15:36;;;;;;;47.75;31.50;;;;;;;6.50;82.72;102850.34;4999328;28;20025;-78
2022/03/22 00:18:02;;;;;;;49.65;29.70;;;;;;;6.49;82.87;102846.78;4987475;28;20080;-78
2022/03/22 00:20:27;;;;;;;42.35;29.85;;;;;;;6.48;83.01;102847.69;4971701;28;20058;-78
2022/03/22 00:22:54;;;;;;;49.15;32.47;;;;;;;6.43;82.90;102850.50;4988067;28;20030;-78
2022/03/22 00:25:20;;;;;;;47.72;31.70;;;;;;;6.37;83.34;102850.63;4978688;28;20062;-79
2022/03/22 00:27:55;;;;;;;45.88;31.98;;;;;;;6.32;84.10;102849.84;4971547;28;20479;-79
2022/03/22 00:30:24;;;;;;;46.72;30.38;;;;;;;6.27;84.34;102854.44;4971131;28;20062;-79
2022/03/22 00:32:52;;;;;;;52.47;33.85;;;;;;;6.24;84.62;102850.03;4986517;28;20060;-79
2022/03/22 00:35:18;;;;;;;45.13;29.65;;;;;;;6.21;84.06;102854.56;4969597;28;20524;-79
2022/03/22 00:37:44;;;;;;;50.17;33.08;;;;;;;6.19;84.40;102854.59;4982219;28;20030;-79
2022/03/22 00:40:13;;;;;;;48.00;32.78;;;;;;;6.17;84.13;102859.09;4971387;28;20422;-79
2022/03/22 00:42:39;;;;;;;47.45;30.83;;;;;;;6.14;84.36;102853.84;4969326;28;20039;-79
2022/03/22 00:45:04;;;;;;;50.90;32.58;;;;;;;6.12;83.47;102861.00;4951806;28;20046;-79
2022/03/22 00:47:30;;;;;;;45.45;29.48;;;;;;;6.09;83.84;102861.03;4975917;28;20100;-79
2022/03/22 00:49:55;;;;;;;45.72;30.73;;;;;;;6.07;84.07;102860.22;4979814;28;20080;-79
2022/03/22 00:52:20;;;;;;;42.70;29.90;;;;;;;6.05;83.84;102859.38;4977490;28;20058;-79
2022/03/22 00:54:45;;;;;;;44.53;31.85;;;;;;;6.04;83.59;102852.28;4975684;28;20034;-79
2022/03/22 00:57:11;;;;;;;43.45;29.80;;;;;;;6.00;83.34;102855.91;4975093;28;20049;-79
2022/03/22 01:02:20;;;;;;;43.63;28.90;;;;;;;6.01;83.27;102860.34;4976966;28;20552;-79
2022/03/22 01:04:45;;;;;;;44.58;30.05;;;;;;;6.01;83.58;102861.22;4985397;28;20031;-79
2022/03/22 01:07:10;;;;;;;46.35;30.55;;;;;;;6.00;83.05;102859.47;4972497;28;20041;-79
2022/03/22 01:09:36;;;;;;;41.47;28.77;;;;;;;6.00;83.01;102863.94;4986484;28;20034;-79
2022/03/22 01:12:01;;;;;;;49.50;29.88;;;;;;;5.98;83.34;102860.44;4983994;28;20239;-79
2022/03/22 01:14:27;;;;;;;42.17;29.42;;;;;;;5.95;83.75;102864.00;4984756;28;20038;-79
2022/03/22 01:16:53;;;;;;;52.50;30.80;;;;;;;5.97;83.98;102863.97;4974361;28;20546;-78
2022/03/22 01:19:21;;;;;;;45.63;27.95;;;;;;;5.94;83.92;102871.13;4983211;28;20105;-78
2022/03/22 01:21:47;;;;;;;42.80;27.98;;;;;;;5.89;83.17;102862.34;5004887;28;20096;-78
2022/03/22 01:24:12;;;;;;;41.70;28.38;;;;;;;5.87;84.03;102861.50;4991492;28;20494;-78
2022/03/22 01:26:37;;;;;;;44.60;26.85;;;;;;;5.88;83.27;102865.03;4990553;28;20092;-78
2022/03/22 01:29:03;;;;;;;43.50;28.90;;;;;;;5.89;84.32;102867.69;4973969;28;20449;-78
2022/03/22 01:31:28;;;;;;;45.05;28.67;;;;;;;5.87;84.40;102869.50;4974423;28;20416;-78
2022/03/22 01:33:54;;;;;;;44.55;28.58;;;;;;;5.85;84.08;102863.31;4991168;28;20022;-78
2022/03/22 01:36:19;;;;;;;43.72;28.98;;;;;;;5.82;83.98;102868.72;4989844;28;20084;-78
2022/03/22 01:38:46;;;;;;;48.15;28.85;;;;;;;5.80;84.25;102869.66;4972873;28;20045;-78
2022/03/22 01:41:12;;;;;;;44.42;28.25;;;;;;;5.76;84.29;102868.84;4973075;28;20121;-78
2022/03/22 01:43:37;;;;;;;43.50;26.13;;;;;;;5.73;84.40;102871.59;4991045;28;20126;-78
2022/03/22 01:46:03;;;;;;;42.97;27.85;;;;;;;5.73;84.45;102875.13;4991187;28;20030;-78
2022/03/22 01:48:28;;;;;;;40.22;26.08;;;;;;;5.72;83.69;102865.34;4973806;28;20113;-78
2022/03/22 01:50:54;;;;;;;37.35;25.65;;;;;;;5.73;83.78;102861.78;4982156;28;20042;-78
2022/03/22 01:53:21;;;;;;;39.53;24.50;;;;;;;5.79;84.72;102866.09;4974748;28;20031;-78
2022/03/22 01:55:47;;;;;;;43.35;24.88;;;;;;;5.85;84.24;102865.97;4990489;28;20391;-78
2022/03/22 01:58:13;;;;;;;34.75;22.90;;;;;;;5.90;84.46;102856.09;4973433;28;20018;-78
2022/03/22 02:00:39;;;;;;;40.08;23.75;;;;;;;6.03;84.95;102855.84;4978136;28;20084;-78
2022/03/22 02:05:51;;;;;;;36.10;22.23;;;;;;;6.21;84.62;102860.78;4983733;28;20049;-78
2022/03/22 02:08:18;;;;;;;39.85;21.88;;;;;;;6.30;84.05;102849.03;4983834;28;20534;-78
2022/03/22 02:10:44;;;;;;;33.88;22.58;;;;;;;6.37;83.55;102849.75;4993282;28;20030;-78
2022/03/22 02:13:09;;;;;;;39.88;22.10;;;;;;;6.43;83.48;102845.16;4978975;28;20453;-78
2022/03/22 02:15:38;;;;;;;34.42;21.80;;;;;;;6.47;83.17;102851.28;4977810;28;20030;-78
2022/03/22 02:18:03;;;;;;;37.15;21.35;;;;;;;6.51;82.90;102849.44;4988556;28;20030;-78
2022/03/22 02:20:29;;;;;;;39.47;22.33;;;;;;;6.52;82.37;102848.53;4972682;28;20049;-78
2022/03/22 02:23:14;;;;;;;34.35;20.75;;;;;;;6.54;82.32;102841.34;4990831;28;20057;-78
2022/03/22 02:25:39;;;;;;;39.03;21.55;;;;;;;6.51;82.22;102839.59;4986789;28;20557;-78
2022/03/22 02:28:05;;;;;;;32.58;20.52;;;;;;;6.50;81.58;102845.91;4973349;28;20054;-78
2022/03/22 02:30:31;;;;;;;33.85;21.73;;;;;;;6.48;81.85;102848.56;4974291;28;20026;-78
2022/03/22 02:33:01;;;;;;;34.78;20.23;;;;;;;6.43;81.48;102841.59;4972836;28;20368;-78
2022/03/22 02:35:28;;;;;;;32.92;20.75;;;;;;;6.41;82.03;102843.41;4973585;28;20031;-78
2022/03/22 02:37:53;;;;;;;41.28;20.13;;;;;;;6.39;81.78;102842.59;4982892;28;20069;-78
2022/03/22 02:40:19;;;;;;;33.17;19.25;;;;;;;6.36;81.73;102845.34;4990457;28;20069;-78
2022/03/22 02:42:53;;;;;;;31.23;20.08;;;;;;;6.35;81.56;102843.56;4990484;28;20034;-78
2022/03/22 02:45:20;;;;;;;31.77;19.88;;;;;;;6.33;81.64;102843.59;4982376;28;20402;-79
2022/03/22 02:47:45;;;;;;;37.45;20.23;;;;;;;6.28;81.47;102846.38;4980273;28;20031;-79
2022/03/22 02:50:11;;;;;;;33.60;20.63;;;;;;;6.26;81.94;102850.88;4988001;28;20549;-79
2022/03/22 02:52:38;;;;;;;32.33;19.60;;;;;;;6.22;81.68;102854.53;4994100;28;20052;-79
2022/03/22 02:55:06;;;;;;;31.58;20.80;;;;;;;6.20;81.62;102847.47;4986237;28;20038;-79
2022/03/22 02:57:35;;;;;;;35.53;21.25;;;;;;;6.16;81.61;102846.66;4971451;28;20078;-79
2022/03/22 03:00:03;;;;;;;35.63;20.20;;;;;;;6.10;81.49;102845.00;4980508;28;20023;-79
2022/03/22 03:02:28;;;;;;;35.28;18.80;;;;;;;6.06;81.55;102850.44;4981509;28;20037;-79
2022/03/22 03:04:53;;;;;;;29.92;17.45;;;;;;;6.02;81.57;102851.41;4988546;28;20030;-79
2022/03/22 03:07:18;;;;;;;34.60;20.23;;;;;;;5.98;81.87;102855.09;5006112;28;20026;-79
2022/03/22 03:09:44;;;;;;;34.13;18.27;;;;;;;5.95;81.67;102858.66;4988915;28;20037;-79
2022/03/22 03:12:09;;;;;;;33.10;18.50;;;;;;;5.88;81.76;102849.91;4996778;28;20406;-79
2022/03/22 03:14:41;;;;;;;37.78;21.90;;;;;;;5.84;82.03;102858.00;5006244;28;20061;-79
2022/03/22 03:17:09;;;;;;;30.95;18.67;;;;;;;5.76;81.45;102855.50;4988522;28;20501;-79
2022/03/22 03:19:37;;;;;;;33.55;19.05;;;;;;;5.73;81.56;102852.91;4990329;28;20092;-79
2022/03/22 03:22:04;;;;;;;33.13;19.55;;;;;;;5.68;81.62;102860.09;4984370;28;20034;-79
2022/03/22 03:24:30;;;;;;;34.80;21.48;;;;;;;5.65;82.57;102857.50;4991963;28;20058;-79
2022/03/22 03:26:55;;;;;;;31.90;20.05;;;;;;;5.59;82.47;102858.50;4986308;28;20045;-79
2022/03/22 03:29:24;;;;;;;33.10;20.75;;;;;;;5.57;82.62;102857.66;4990836;28;20019;-79
2022/03/22 03:31:49;;;;;;;31.30;18.80;;;;;;;5.54;82.65;102861.28;4986946;28;20039;-79
2022/03/22 03:34:15;;;;;;;35.53;18.88;;;;;;;5.50;82.48;102861.38;4990727;28;20103;-79
2022/03/22 03:36:41;;;;;;;33.55;18.25;;;;;;;5.46;82.31;102863.22;4988927;28;20439;-79
2022/03/22 03:39:07;;;;;;;33.75;20.40;;;;;;;5.43;82.59;102868.59;4988798;28;20041;-79
2022/03/22 03:47:03;;;;;;;33.67;20.08;;;;;;;5.34;83.11;102874.09;4990249;28;20042;-79
2022/03/22 03:49:29;;;;;;;34.92;19.92;;;;;;;5.30;83.06;102875.06;4990473;28;20105;-79
2022/03/22 03:51:54;;;;;;;32.42;19.88;;;;;;;5.29;83.30;102884.00;4986091;28;20513;-79
2022/03/22 03:54:20;;;;;;;33.20;19.52;;;;;;;5.27;82.95;102880.47;4989103;28;20061;-79
2022/03/22 03:56:46;;;;;;;31.83;19.95;;;;;;;5.22;83.12;102878.75;4983960;28;20419;-79
2022/03/22 03:59:11;;;;;;;32.10;19.35;;;;;;;5.20;83.34;102885.91;4989766;28;20022;-79
2022/03/22 04:01:36;;;;;;;32.63;18.90;;;;;;;5.17;83.02;102880.63;4980467;28;20026;-78
2022/03/22 04:04:03;;;;;;;36.60;19.45;;;;;;;5.16;82.78;102884.19;4989960;28;20022;-78
2022/03/22 04:06:29;;;;;;;32.38;18.75;;;;;;;5.16;83.10;102886.00;4984741;28;20548;-78
2022/03/22 04:08:55;;;;;;;34.15;20.17;;;;;;;5.15;82.94;102882.44;4986376;28;20022;-78
2022/03/22 04:11:20;;;;;;;30.77;19.63;;;;;;;5.17;82.97;102885.97;4982450;28;20038;-79
2022/03/22 04:13:46;;;;;;;31.08;18.85;;;;;;;5.18;82.68;102893.06;4968967;28;20461;-79
2022/03/22 04:16:11;;;;;;;32.33;18.63;;;;;;;5.21;82.66;102894.78;4977553;28;20057;-79
2022/03/22 04:18:36;;;;;;;33.40;18.65;;;;;;;5.22;82.60;102894.75;4986816;28;20034;-79
2022/03/22 04:21:02;;;;;;;31.90;17.95;;;;;;;5.26;82.83;102892.91;4973641;28;20038;-79
2022/03/22 04:23:28;;;;;;;31.52;17.25;;;;;;;5.30;83.17;102893.72;4970510;28;20042;-79
2022/03/22 04:25:53;;;;;;;30.88;18.20;;;;;;;5.33;82.55;102896.34;4978240;28;20054;-79
2022/03/22 04:33:46;;;;;;;28.90;17.65;;;;;;;5.32;82.45;102897.25;4987071;28;20556;-79
2022/03/22 04:36:12;;;;;;;31.05;18.92;;;;;;;5.28;82.34;102898.22;5000365;28;20050;-79
2022/03/22 04:38:37;;;;;;;36.15;20.90;;;;;;;5.22;82.27;102889.41;4982758;28;20042;-79
2022/03/22 04:41:02;;;;;;;33.85;19.45;;;;;;;5.14;81.73;102890.47;4971301;28;20030;-79
2022/03/22 04:43:28;;;;;;;32.50;19.08;;;;;;;5.04;81.80;102887.97;4970145;28;20034;-79
2022/03/22 04:45:53;;;;;;;35.88;19.10;;;;;;;4.97;82.39;102888.09;4986116;28;20113;-79
2022/03/22 04:48:19;;;;;;;33.55;20.15;;;;;;;4.88;82.75;102898.00;4974041;28;20062;-79
2022/03/22 04:50:44;;;;;;;32.22;18.75;;;;;;;4.84;83.07;102896.28;4970629;28;20089;-79
2022/03/22 04:58:37;;;;;;;32.20;17.77;;;;;;;4.75;82.46;102896.44;4970092;28;20183;-79
2022/03/22 05:01:03;;;;;;;33.53;18.25;;;;;;;4.69;82.32;102901.88;4970074;28;20042;-79
2022/03/22 05:03:29;;;;;;;31.27;17.60;;;;;;;4.67;82.36;102901.91;4963909;28;20038;-79
2022/03/22 05:08:38;;;;;;;33.42;17.92;;;;;;;4.64;82.80;102901.03;4984967;28;20426;-78
2022/03/22 05:11:03;;;;;;;31.67;19.17;;;;;;;4.62;82.92;102903.72;4976143;28;20034;-78
2022/03/22 05:13:28;;;;;;;35.00;18.38;;;;;;;4.64;83.40;102903.72;4996506;28;20125;-78
2022/03/22 05:15:54;;;;;;;32.78;18.60;;;;;;;4.63;83.82;102910.84;4984860;28;20089;-78
2022/03/22 05:18:22;;;;;;;30.05;18.90;;;;;;;4.63;83.61;102910.84;4982738;28;20226;-78
2022/03/22 05:20:47;;;;;;;30.30;17.10;;;;;;;4.64;83.59;102911.69;5003021;28;20026;-78
2022/03/22 05:23:12;;;;;;;32.15;17.85;;;;;;;4.63;83.46;102916.16;4974924;28;20081;-78
2022/03/22 05:25:38;;;;;;;33.95;19.27;;;;;;;4.63;83.60;102918.81;4975646;28;20046;-78
2022/03/22 05:28:03;;;;;;;34.45;20.08;;;;;;;4.63;83.90;102925.94;4985650;28;20062;-78
2022/03/22 05:30:30;;;;;;;35.13;19.05;;;;;;;4.59;83.60;102918.91;4983594;28;20129;-78
2022/03/22 05:32:58;;;;;;;35.47;19.00;;;;;;;4.55;83.92;102929.59;4975689;28;20069;-78
2022/03/22 05:35:24;;;;;;;33.40;18.30;;;;;;;4.54;83.78;102927.81;4988236;28;20053;-78
2022/03/22 05:37:50;;;;;;;30.73;18.48;;;;;;;4.56;83.49;102930.47;4971193;28;20031;-78
2022/03/22 05:40:16;;;;;;;33.40;19.25;;;;;;;4.55;83.61;102926.03;4969583;28;20031;-78
2022/03/22 05:42:41;;;;;;;31.77;17.50;;;;;;;4.55;83.07;102931.34;4974082;28;20033;-78
2022/03/22 05:45:08;;;;;;;36.00;18.30;;;;;;;4.55;83.42;102926.94;4999777;28;20030;-78
2022/03/22 05:47:34;;;;;;;30.95;16.60;;;;;;;4.52;83.58;102936.72;4987164;28;20109;-78
2022/03/22 05:49:59;;;;;;;34.00;16.88;;;;;;;4.49;83.12;102932.31;4974722;28;20226;-78
2022/03/22 05:52:24;;;;;;;32.60;18.63;;;;;;;4.49;83.72;102929.66;4968747;28;20038;-78
2022/03/22 05:54:49;;;;;;;29.98;18.13;;;;;;;4.51;83.92;102927.88;4975227;28;20061;-78
2022/03/22 05:57:15;;;;;;;32.03;17.90;;;;;;;4.53;84.22;102931.38;4987540;28;20026;-78
2022/03/22 05:59:40;;;;;;;31.25;19.88;;;;;;;4.54;83.75;102922.50;4987500;28;20831;-78
2022/03/22 06:02:06;;;;;;;37.58;19.42;;;;;;;4.57;83.92;102928.66;5002907;28;20037;-78
2022/03/22 06:04:31;;;;;;;37.00;20.13;;;;;;;4.61;84.26;102933.06;4979789;28;20061;-78
2022/03/22 06:06:56;;;;;;;35.42;17.95;;;;;;;4.65;84.50;102940.09;4982960;28;20114;-79
2022/03/22 06:09:21;;;;;;;34.95;19.27;;;;;;;4.67;84.08;102946.28;4977425;28;20374;-79
2022/03/22 06:11:47;;;;;;;32.70;19.58;;;;;;;4.67;84.11;102943.63;4990207;28;20030;-78
2022/03/22 06:14:12;;;;;;;32.50;18.23;;;;;;;4.70;84.90;102943.56;4981939;28;20085;-78
2022/03/22 06:16:38;;;;;;;32.33;18.42;;;;;;;4.72;84.76;102941.78;4986066;28;20595;-78
2022/03/22 06:19:04;;;;;;;34.53;20.90;;;;;;;4.80;84.93;102944.31;4984794;28;20059;-79
2022/03/22 06:21:29;;;;;;;34.22;18.60;;;;;;;4.86;84.71;102949.53;4972281;28;20030;-79
2022/03/22 06:23:54;;;;;;;36.97;21.08;;;;;;;4.95;84.52;102949.41;4979997;28;20065;-79
2022/03/22 06:26:20;;;;;;;37.53;21.67;;;;;;;5.05;84.81;102950.13;4990927;28;20529;-79
2022/03/22 06:28:45;;;;;;;33.95;21.15;;;;;;;5.15;84.47;102951.72;4990824;28;20109;-79
2022/03/22 06:31:11;;;;;;;35.80;21.15;;;;;;;5.28;83.93;102948.88;4972320;28;20041;-79
2022/03/22 06:33:36;;;;;;;37.65;22.17;;;;;;;5.36;83.96;102955.84;4988637;28;20431;-79
2022/03/22 06:36:02;;;;;;;34.67;21.00;;;;;;;5.47;83.38;102952.97;4990610;28;20117;-79
2022/03/22 06:38:32;;;;;;;41.53;22.85;;;;;;;5.56;83.09;102951.94;4984945;28;20521;-79
2022/03/22 06:40:58;;;;;;;;;;;;;;;5.68;82.42;102956.16;4976233;28;20076;-79
2022/03/22 06:43:23;;;;;;;36.28;21.23;;;;;;;5.73;82.71;102962.28;5002464;28;19910;-79
2022/03/22 06:45:48;;;;;;;32.53;21.60;;;;;;;5.81;82.46;102956.81;4991340;28;20552;-79
2022/03/22 06:48:17;;;;;;;35.63;21.33;;;;;;;5.88;81.64;102947.78;4994681;28;20117;-78
2022/03/22 06:50:44;;;;;;;36.90;20.87;;;;;;;5.94;81.62;102967.22;4989576;28;20055;-78
2022/03/22 06:53:10;;;;;;;37.15;21.27;;;;;;;5.98;81.79;102961.84;5002559;28;20293;-78
2022/03/22 06:55:38;;;;;;;34.72;19.90;;;;;;;6.04;81.42;102964.41;5006558;28;20072;-78
2022/03/22 06:58:05;;;;;;;36.67;21.20;;;;;;;6.07;80.93;102965.19;4997362;28;20042;-79
2022/03/22 07:00:31;;;;;;;38.13;21.83;;;;;;;6.16;80.89;102965.94;5000006;28;20117;-79
2022/03/22 07:02:58;;;;;;;33.30;21.70;;;;;;;6.22;80.98;102969.38;4992371;28;20489;-79
2022/03/22 07:05:24;;;;;;;35.58;21.02;;;;;;;6.29;80.38;102970.97;5003473;28;20037;-80
2022/03/22 07:07:49;;;;;;;34.80;22.13;;;;;;;6.37;80.10;102967.25;5009273;28;20091;-80
2022/03/22 07:10:17;;;;;;;36.65;21.98;;;;;;;6.43;80.70;102977.84;5007188;28;20022;-80
2022/03/22 07:12:57;;;;;;;36.55;22.17;;;;;;;6.52;79.83;102977.63;5007888;28;20030;-80
2022/03/22 07:15:27;;;;;;;;;;;;;;;6.62;80.21;102968.47;4997035;28;20026;-81
2022/03/22 07:17:52;;;;;;;37.17;22.02;;;;;;;6.71;79.02;102972.75;4999029;28;19913;-79
2022/03/22 07:20:19;;;;;;;36.50;21.33;;;;;;;6.81;78.00;102970.75;5000068;28;20033;-78
2022/03/22 07:22:46;;;;;;;38.55;22.58;;;;;;;6.93;78.05;102965.09;5008142;28;20473;-78
2022/03/22 07:25:11;;;;;;;45.90;23.20;;;;;;;7.00;77.48;102966.72;5002662;28;20097;-79
2022/03/22 07:27:36;;;;;;;36.90;25.10;;;;;;;7.07;77.25;102970.13;4991080;28;20022;-78
2022/03/22 07:30:03;;;;;;;37.40;22.02;;;;;;;7.14;76.86;102976.19;4990522;28;20045;-80
2022/03/22 07:32:28;;;;;;;37.70;22.13;;;;;;;7.23;76.26;102975.94;4987487;28;20494;-80
2022/03/22 07:34:54;;;;;;;36.15;22.17;;;;;;;7.34;76.14;102973.00;4988981;28;20076;-80
2022/03/22 07:37:19;;;;;;;33.80;21.98;;;;;;;7.40;76.93;102974.66;4991855;28;20383;-80
2022/03/22 07:39:45;;;;;;;38.25;22.60;;;;;;;7.45;75.63;102976.31;4986669;28;20026;-80
2022/03/22 07:42:10;;;;;;;34.28;21.42;;;;;;;7.54;74.88;102972.50;4990287;28;20037;-80
2022/03/22 07:44:35;;;;;;;36.60;21.50;;;;;;;7.61;75.00;102976.75;4990314;28;20049;-80
2022/03/22 07:47:00;;;;;;;42.28;24.08;;;;;;;7.73;74.65;102977.34;4987865;28;20459;-80
2022/03/22 07:54:54;;;;;;;36.97;21.55;;;;;;;8.11;72.69;102978.97;4989822;28;20044;-80
2022/03/22 07:57:19;;;;;;;38.63;20.55;;;;;;;8.22;71.96;102978.66;4989529;28;20113;-80
2022/03/22 07:59:45;;;;;;;34.58;21.20;;;;;;;8.25;71.85;102977.69;4989067;28;20073;-80
2022/03/22 08:02:10;;;;;;;34.72;21.90;;;;;;;8.34;71.38;102983.63;4989659;28;20033;-79
2022/03/22 08:04:35;;;;;;;35.28;21.77;;;;;;;8.44;70.64;102978.91;4989941;28;20105;-79
2022/03/22 08:07:01;;;;;;;39.05;21.75;;;;;;;8.53;70.31;102978.63;4989773;28;20052;-79
2022/03/22 08:09:26;;;;;;;35.58;20.55;;;;;;;8.64;69.82;102985.47;4988713;28;20022;-79
2022/03/22 08:11:51;;;;;;;34.35;21.58;;;;;;;8.73;69.78;102988.75;4991650;28;20027;-79
2022/03/22 08:14:19;;;;;;;37.13;22.10;;;;;;;8.80;70.53;102991.22;4990373;28;20536;-79
2022/03/22 08:16:45;;;;;;;35.47;22.00;;;;;;;8.85;69.93;102990.16;4988502;28;20033;-80
2022/03/22 08:19:17;;;;;;;37.47;21.05;;;;;;;8.95;68.04;102988.09;4991640;28;20026;-80
2022/03/22 08:21:43;;;;;;;34.45;20.77;;;;;;;9.09;68.05;102988.50;4989026;28;20382;-80
2022/03/22 08:24:08;;;;;;;37.60;20.67;;;;;;;9.14;67.68;102979.44;4988259;28;20145;-80
2022/03/22 08:26:35;;;;;;;36.45;21.73;;;;;;;9.24;67.30;102984.44;4989223;28;20030;-80
2022/03/22 08:29:00;;;;;;;42.08;21.60;;;;;;;9.27;68.56;102988.84;4989007;28;20030;-80
2022/03/22 08:31:26;;;;;;;35.17;20.85;;;;;;;9.32;67.29;102992.22;4989720;28;20049;-80
2022/03/22 08:33:53;;;;;;;35.42;21.17;;;;;;;9.38;66.36;102989.31;4990491;28;20030;-80
2022/03/22 08:36:20;;;;;;;35.88;20.88;;;;;;;9.43;66.97;102984.69;4990199;28;20031;-80
2022/03/22 08:38:46;;;;;;;34.75;20.38;;;;;;;9.51;66.76;102992.47;4989642;28;20042;-80
2022/03/22 08:41:11;;;;;;;33.85;20.08;;;;;;;9.55;65.94;102983.41;4990816;28;20030;-80
2022/03/22 08:43:36;;;;;;;38.90;20.58;;;;;;;9.64;65.99;102984.88;4989325;28;20037;-80
2022/03/22 08:46:02;;;;;;;35.85;20.58;;;;;;;9.74;64.80;102985.44;4990028;28;20030;-80
2022/03/22 08:48:27;;;;;;;36.97;20.20;;;;;;;9.88;64.03;102993.00;4990077;28;20042;-80
2022/03/22 08:50:53;;;;;;;32.80;20.55;;;;;;;10.00;63.95;102987.19;4989799;28;20446;-80
2022/03/22 08:53:20;;;;;;;37.05;21.05;;;;;;;10.08;62.21;102993.13;4991392;28;20565;-80
2022/03/22 08:55:47;;;;;;;34.28;21.52;;;;;;;10.14;63.05;102989.34;4988434;28;20433;-80
2022/03/22 08:58:12;;;;;;;34.83;20.20;;;;;;;10.21;62.64;102990.88;4990874;28;20382;-80
2022/03/22 09:00:38;;;;;;;33.25;19.08;;;;;;;10.27;62.10;102982.56;4988948;28;20034;-80
2022/03/22 09:03:05;;;;;;;33.08;19.80;;;;;;;10.44;61.72;102991.84;4989170;28;20140;-80
2022/03/22 09:08:15;;;;;;;33.28;18.88;;;;;;;10.56;61.54;102991.38;4990025;28;20201;-80
2022/03/22 09:10:40;;;;;;;33.83;20.23;;;;;;;10.70;59.23;102988.13;4989722;28;20026;-80
2022/03/22 09:13:07;;;;;;;35.55;19.83;;;;;;;10.75;60.26;102980.78;4972571;28;20475;-81
2022/03/22 09:15:36;;;;;;;35.95;19.90;;;;;;;10.83;59.63;102983.16;4986698;28;20445;-80
2022/03/22 09:18:02;;;;;;;33.17;19.88;;;;;;;10.84;60.26;102983.09;4989038;28;20053;-79
2022/03/22 09:20:32;;;;;;;35.80;20.15;;;;;;;10.96;57.18;102981.72;4988333;28;20113;-79
2022/03/22 09:22:59;;;;;;;36.60;19.75;;;;;;;11.10;57.26;102970.41;4988702;28;20025;-79
2022/03/22 09:25:24;;;;;;;37.03;21.52;;;;;;;11.22;57.29;102973.53;4980664;28;20054;-79
2022/03/22 09:27:50;;;;;;;37.80;21.42;;;;;;;11.32;57.31;102972.19;4980968;28;20117;-79
2022/03/22 09:30:16;;;;;;;39.08;21.48;;;;;;;11.44;57.64;102978.88;4988888;28;20026;-80
2022/03/22 09:32:44;;;;;;;34.78;20.90;;;;;;;11.44;57.72;102977.03;4978329;28;20031;-79
2022/03/22 09:35:12;;;;;;;35.92;19.75;;;;;;;11.45;59.21;102969.81;4975827;28;20025;-79
2022/03/22 09:37:38;;;;;;;33.60;19.67;;;;;;;11.41;59.88;102977.19;4974651;28;20038;-79
2022/03/22 09:40:04;;;;;;;42.40;21.70;;;;;;;11.46;57.05;102985.06;4972267;28;20049;-79
2022/03/22 09:42:30;;;;;;;35.85;21.65;;;;;;;11.48;57.02;102975.97;4980262;28;20483;-79
2022/03/22 09:44:57;;;;;;;36.63;20.98;;;;;;;11.52;57.33;102983.00;4976774;28;20030;-79
2022/03/22 09:47:23;;;;;;;33.83;21.23;;;;;;;11.58;57.64;102968.38;4968386;28;20446;-79
2022/03/22 09:49:49;;;;;;;39.22;23.02;;;;;;;11.72;55.13;102974.00;4983174;28;20137;-79
2022/03/22 09:52:15;;;;;;;38.88;20.75;;;;;;;11.89;57.11;102975.09;4978545;28;20034;-79
2022/03/22 09:54:40;;;;;;;34.65;20.73;;;;;;;11.94;55.45;102977.63;4975013;28;20434;-79
2022/03/22 09:57:07;;;;;;;41.55;20.80;;;;;;;12.05;54.74;102969.94;4964660;28;20034;-79
2022/03/22 09:59:33;;;;;;;36.72;21.88;;;;;;;12.11;53.47;102969.66;4979321;28;20027;-80
2022/03/22 10:02:06;;;;;;;35.55;21.25;;;;;;;12.16;54.51;102973.00;4983317;28;20488;-80
2022/03/22 10:04:49;;;;;;;34.10;20.88;;;;;;;12.21;56.44;102973.66;4977169;28;20449;-79
2022/03/22 10:07:20;;;;;;;31.75;19.83;;;;;;;12.20;55.95;102969.22;4977087;28;20141;-80
2022/03/22 10:10:15;;;;;;;35.97;21.02;;;;;;;12.20;56.60;102969.22;4991826;28;20081;-79
2022/03/22 10:12:40;;;;;;;38.47;24.13;;;;;;;12.28;54.20;102970.69;4979032;28;20137;-80
2022/03/22 10:15:12;;;;;;;42.60;22.50;;;;;;;12.40;53.80;102970.09;4983558;28;20146;-80
2022/03/22 10:17:38;;;;;;;40.40;23.73;;;;;;;12.58;53.37;102968.38;4990756;28;20076;-80
2022/03/22 10:20:08;;;;;;;40.10;23.63;;;;;;;12.70;52.46;102961.50;4983860;28;20038;-80
2022/03/22 10:22:34;;;;;;;40.83;22.55;;;;;;;12.74;54.41;102955.00;4991808;28;20445;-79
2022/03/22 10:25:04;;;;;;;38.20;21.90;;;;;;;12.73;52.15;102950.56;4981964;28;20070;-79
2022/03/22 10:27:32;;;;;;;36.33;22.85;;;;;;;12.73;52.55;102961.34;4955593;28;20082;-78
2022/03/22 10:30:00;;;;;;;34.15;19.40;;;;;;;12.64;54.89;102951.88;4979446;28;20105;-77
2022/03/22 10:32:37;;;;;;;38.15;22.95;;;;;;;12.66;54.07;102957.19;4992221;28;20058;-79
2022/03/22 10:35:23;;;;;;;36.50;22.40;;;;;;;12.71;53.13;102953.31;4974609;28;20031;-79
2022/03/22 10:37:53;;;;;;;39.00;22.63;;;;;;;12.78;50.18;102948.47;4990067;28;20027;-79
2022/03/22 10:40:22;;;;;;;37.75;21.98;;;;;;;12.87;53.35;102948.06;4958426;28;20034;-79
2022/03/22 10:42:49;;;;;;;40.47;22.60;;;;;;;12.93;51.83;102946.88;4990615;28;20418;-78
2022/03/22 10:45:14;;;;;;;38.53;21.98;;;;;;;13.02;48.72;102946.41;4982546;28;20065;-79
2022/03/22 10:47:39;;;;;;;34.78;20.80;;;;;;;13.00;53.80;102950.13;4973073;28;20062;-79
2022/03/22 10:50:05;;;;;;;35.47;21.30;;;;;;;13.10;49.44;102940.63;4979243;28;20482;-74
2022/03/22 10:52:32;;;;;;;33.97;19.83;;;;;;;13.13;50.14;102937.75;4983116;28;20034;-74
2022/03/22 10:54:57;;;;;;;33.33;21.15;;;;;;;13.22;49.69;102942.72;4988844;28;20030;-74
2022/03/22 10:57:32;;;;;;;33.92;19.17;;;;;;;13.37;50.59;102946.47;4982228;28;20061;-75
2022/03/22 11:00:02;;;;;;;38.05;20.85;;;;;;;13.39;52.28;102951.81;4976568;28;20081;-75
2022/03/22 11:02:31;;;;;;;35.03;21.30;;;;;;;13.42;48.80;102946.22;4981581;28;20041;-77
2022/03/22 11:04:58;;;;;;;32.25;18.80;;;;;;;13.38;52.56;102941.94;4978865;28;20105;-77
2022/03/22 11:07:25;;;;;;;33.50;20.77;;;;;;;13.34;51.39;102943.94;4979639;28;20022;-76
2022/03/22 11:09:51;;;;;;;32.83;19.92;;;;;;;13.49;51.59;102938.69;4989375;28;20023;-76
2022/03/22 11:12:18;;;;;;;33.47;17.77;;;;;;;13.56;48.35;102935.59;4982440;28;20037;-76
2022/03/22 11:14:44;;;;;;;30.70;17.52;;;;;;;13.70;47.11;102936.69;4979066;28;20022;-79
2022/03/22 11:17:10;;;;;;;34.92;18.77;;;;;;;13.84;48.81;102938.66;4974249;28;20030;-79
2022/03/22 11:19:36;;;;;;;33.25;18.17;;;;;;;13.98;46.54;102934.25;4981033;28;20031;-79
2022/03/22 11:22:05;;;;;;;29.90;16.98;;;;;;;14.05;48.15;102942.00;4984297;28;20415;-79
2022/03/22 11:24:34;;;;;;;30.95;16.70;;;;;;;14.06;46.47;102941.06;4980759;28;20112;-76
2022/03/22 11:27:06;;;;;;;32.72;17.35;;;;;;;14.04;48.79;102934.84;4982986;28;20030;-76
2022/03/22 11:29:32;;;;;;;32.10;16.42;;;;;;;14.04;47.87;102929.44;4956725;28;20513;-80
2022/03/22 11:34:42;;;;;;;30.75;17.25;;;;;;;14.11;47.32;102928.16;4982745;28;20092;-80
2022/03/22 11:37:09;;;;;;;31.00;16.15;;;;;;;14.18;48.76;102918.75;4990104;28;20030;-80
2022/03/22 11:42:21;;;;;;;35.13;18.38;;;;;;;14.30;49.65;102925.31;4984890;28;20101;-80
2022/03/22 11:45:02;;;;;;;34.72;19.85;;;;;;;14.31;48.15;102917.09;4980078;28;20077;-80
2022/03/22 11:47:44;;;;;;;31.90;16.80;;;;;;;14.34;51.82;102914.22;4977642;28;20030;-80
2022/03/22 11:50:13;;;;;;;34.42;17.10;;;;;;;14.37;49.04;102918.59;4981176;28;20128;-80
2022/03/22 11:52:41;;;;;;;30.27;16.30;;;;;;;14.46;46.87;102920.75;4974230;28;20054;-80